createdAt,value
2023-03-03T00:00:21.427Z,102608.41
2023-03-03T00:02:51.335Z,102605.47
2023-03-03T00:05:21.327Z,102606.25
2023-03-03T00:07:51.164Z,102610.38
2023-03-03T00:10:23.594Z,102616.50
2023-03-03T00:12:55.303Z,102619.88
2023-03-03T00:15:27.456Z,102616.50
2023-03-03T00:17:58.085Z,102618.06
2023-03-03T00:20:36.584Z,102619.72
2023-03-03T00:23:23.910Z,102615.28
2023-03-03T00:25:57.378Z,102610.72
2023-03-03T00:28:30.394Z,102616.84
2023-03-03T00:31:02.260Z,102621.13
2023-03-03T00:33:35.577Z,102616.53
2023-03-03T00:36:35.110Z,102615.75
2023-03-03T00:39:28.250Z,102615.47
2023-03-03T00:42:05.009Z,102612.59
2023-03-03T00:44:43.191Z,102619.47
2023-03-03T00:50:32.183Z,102614.13
2023-03-03T00:53:08.615Z,102609.72
2023-03-03T00:55:39.074Z,102611.25
2023-03-03T00:58:11.991Z,102603.16
2023-03-03T01:00:44.113Z,102610.78
2023-03-03T01:03:18.199Z,102606.22
2023-03-03T01:05:53.528Z,102603.47
2023-03-03T01:08:25.138Z,102606.69
2023-03-03T01:10:57.195Z,102599.53
2023-03-03T01:13:33.298Z,102607.19
2023-03-03T01:16:04.907Z,102602.75
2023-03-03T01:18:37.844Z,102603.34
2023-03-03T01:21:08.042Z,102606.91
2023-03-03T01:23:38.219Z,102603.22
2023-03-03T01:26:08.648Z,102606.56
2023-03-03T01:28:41.196Z,102597.88
2023-03-03T01:31:11.758Z,102597.72
2023-03-03T01:33:41.745Z,102601.25
2023-03-03T01:36:11.819Z,102593.47
2023-03-03T01:38:45.000Z,102591.63
2023-03-03T01:41:15.034Z,102599.41
2023-03-03T01:43:52.903Z,102587.94
2023-03-03T01:46:47.774Z,102590.72
2023-03-03T01:49:22.260Z,102595.00
2023-03-03T01:51:58.397Z,102582.75
2023-03-03T01:54:32.769Z,102591.50
2023-03-03T01:57:05.938Z,102587.81
2023-03-03T01:59:44.005Z,102589.66
2023-03-03T02:02:14.024Z,102587.81
2023-03-03T02:04:44.102Z,102585.22
2023-03-03T02:07:15.254Z,102584.31
2023-03-03T02:09:53.774Z,102592.84
2023-03-03T02:12:29.468Z,102590.13
2023-03-03T02:15:02.216Z,102584.94
2023-03-03T02:17:33.788Z,102586.75
2023-03-03T02:20:08.903Z,102583.38
2023-03-03T02:22:47.211Z,102583.38
2023-03-03T02:25:24.530Z,102582.94
2023-03-03T02:27:57.770Z,102584.00
2023-03-03T02:30:28.188Z,102582.47
2023-03-03T02:32:58.032Z,102586.13
2023-03-03T02:35:36.481Z,102585.50
2023-03-03T02:38:17.524Z,102581.34
2023-03-03T02:40:55.061Z,102583.94
2023-03-03T02:43:29.815Z,102580.59
2023-03-03T02:45:59.892Z,102586.69
2023-03-03T02:48:29.823Z,102591.28
2023-03-03T02:50:59.684Z,102583.50
2023-03-03T02:53:29.550Z,102581.78
2023-03-03T02:55:59.456Z,102584.69
2023-03-03T02:58:31.865Z,102580.28
2023-03-03T03:01:01.697Z,102585.47
2023-03-03T03:03:31.767Z,102586.38
2023-03-03T03:06:01.862Z,102580.28
2023-03-03T03:08:31.857Z,102589.88
2023-03-03T03:11:01.743Z,102589.88
2023-03-03T03:13:35.976Z,102577.66
2023-03-03T03:16:05.972Z,102580.09
2023-03-03T03:18:37.318Z,102586.25
2023-03-03T03:21:11.526Z,102581.19
2023-03-03T03:23:42.605Z,102576.88
2023-03-03T03:26:13.863Z,102580.56
2023-03-03T03:28:46.406Z,102580.56
2023-03-03T03:31:16.377Z,102579.81
2023-03-03T03:33:46.526Z,102578.13
2023-03-03T03:36:16.466Z,102580.84
2023-03-03T03:38:46.318Z,102580.84
2023-03-03T03:41:16.362Z,102586.97
2023-03-03T03:43:48.789Z,102583.44
2023-03-03T03:46:18.929Z,102587.88
2023-03-03T03:48:49.682Z,102579.03
2023-03-03T03:51:20.367Z,102577.34
2023-03-03T03:53:50.116Z,102579.03
2023-03-03T03:56:20.426Z,102579.94
2023-03-03T03:58:53.316Z,102578.25
2023-03-03T04:01:24.628Z,102563.44
2023-03-03T04:03:54.398Z,102567.13
2023-03-03T04:06:24.207Z,102565.59
2023-03-03T04:08:54.007Z,102562.66
2023-03-03T04:11:23.762Z,102567.13
2023-03-03T04:13:57.053Z,102562.66
2023-03-03T04:16:26.849Z,102559.16
2023-03-03T04:18:59.924Z,102561.63
2023-03-03T04:21:30.501Z,102568.03
2023-03-03T04:24:01.717Z,102569.84
2023-03-03T04:26:31.754Z,102564.03
2023-03-03T04:29:04.561Z,102564.81
2023-03-03T04:31:34.694Z,102576.09
2023-03-03T04:34:04.615Z,102570.00
2023-03-03T04:36:34.460Z,102570.00
2023-03-03T04:39:05.659Z,102569.84
2023-03-03T04:41:35.596Z,102561.91
2023-03-03T04:44:08.209Z,102571.25
2023-03-03T04:46:38.285Z,102568.66
2023-03-03T04:49:10.752Z,102566.19
2023-03-03T04:51:42.036Z,102574.91
2023-03-03T04:54:11.894Z,102579.94
2023-03-03T04:56:42.451Z,102565.88
2023-03-03T04:59:15.518Z,102565.13
2023-03-03T05:01:46.625Z,102566.03
2023-03-03T05:04:16.510Z,102563.59
2023-03-03T05:06:46.367Z,102568.31
2023-03-03T05:09:16.143Z,102573.66
2023-03-03T05:11:46.009Z,102569.38
2023-03-03T05:14:18.433Z,102567.84
2023-03-03T05:16:49.150Z,102561.75
2023-03-03T05:19:22.937Z,102568.13
2023-03-03T05:21:52.835Z,102579.41
2023-03-03T05:24:22.630Z,102568.28
2023-03-03T05:26:52.546Z,102570.25
2023-03-03T05:29:26.510Z,102566.88
2023-03-03T05:31:56.343Z,102567.78
2023-03-03T05:34:26.151Z,102561.84
2023-03-03T05:36:55.946Z,102556.63
2023-03-03T05:39:26.153Z,102554.16
2023-03-03T05:41:57.839Z,102552.63
2023-03-03T05:44:30.573Z,102557.84
2023-03-03T05:47:00.454Z,102553.53
2023-03-03T05:49:30.363Z,102561.50
2023-03-03T05:52:00.375Z,102553.53
2023-03-03T05:54:30.622Z,102558.00
2023-03-03T05:57:00.529Z,102563.47
2023-03-03T05:59:33.309Z,102558.00
2023-03-03T06:02:03.395Z,102566.06
2023-03-03T06:04:33.378Z,102559.34
2023-03-03T06:07:06.372Z,102566.34
2023-03-03T06:09:37.109Z,102566.34
2023-03-03T06:12:08.882Z,102577.00
2023-03-03T06:14:41.641Z,102577.31
2023-03-03T06:17:11.665Z,102578.22
2023-03-03T06:19:42.380Z,102576.81
2023-03-03T06:22:12.657Z,102576.06
2023-03-03T06:24:42.550Z,102574.50
2023-03-03T06:27:12.974Z,102578.03
2023-03-03T06:29:45.382Z,102576.50
2023-03-03T06:32:16.367Z,102572.97
2023-03-03T06:34:46.538Z,102577.53
2023-03-03T06:37:16.394Z,102583.94
2023-03-03T06:39:46.250Z,102583.16
2023-03-03T06:42:16.075Z,102584.22
2023-03-03T06:44:52.255Z,102585.28
2023-03-03T06:47:22.101Z,102593.22
2023-03-03T06:49:52.007Z,102599.47
2023-03-03T06:52:25.627Z,102605.88
2023-03-03T06:54:58.317Z,102606.00
2023-03-03T06:57:30.581Z,102606.44
2023-03-03T07:00:15.686Z,102608.56
2023-03-03T07:02:45.535Z,102611.44
2023-03-03T07:05:18.866Z,102617.97
2023-03-03T07:07:58.435Z,102615.81
2023-03-03T07:10:31.154Z,102616.25
2023-03-03T07:13:19.177Z,102618.47
2023-03-03T07:15:52.989Z,102612.66
2023-03-03T07:18:40.481Z,102622.97
2023-03-03T07:21:19.327Z,102616.38
2023-03-03T07:23:51.073Z,102616.81
2023-03-03T07:26:25.059Z,102618.88
2023-03-03T07:28:58.026Z,102615.16
2023-03-03T07:31:36.961Z,102618.03
2023-03-03T07:34:21.660Z,102622.75
2023-03-03T07:36:53.038Z,102620.69
2023-03-03T07:39:40.357Z,102621.28
2023-03-03T07:42:20.791Z,102616.34
2023-03-03T07:44:51.514Z,102618.31
2023-03-03T07:47:27.965Z,102623.63
2023-03-03T07:49:59.702Z,102623.13
2023-03-03T07:52:32.740Z,102621.59
2023-03-03T07:55:04.920Z,102627.22
2023-03-03T07:57:40.742Z,102628.53
2023-03-03T08:00:58.501Z,102621.09
2023-03-03T08:03:30.939Z,102631.19
2023-03-03T08:06:01.823Z,102626.50
2023-03-03T08:08:37.778Z,102629.03
2023-03-03T08:11:12.667Z,102625.41
2023-03-03T08:13:48.472Z,102634.03
2023-03-03T08:16:40.519Z,102629.22
2023-03-03T08:19:18.572Z,102626.91
2023-03-03T08:21:48.495Z,102633.94
2023-03-03T08:24:19.027Z,102639.06
2023-03-03T08:26:48.808Z,102622.38
2023-03-03T08:29:18.582Z,102629.13
2023-03-03T08:31:48.433Z,102634.34
2023-03-03T08:34:20.975Z,102630.84
2023-03-03T08:36:51.030Z,102628.88
2023-03-03T08:39:20.819Z,102635.53
2023-03-03T08:41:50.600Z,102623.13
2023-03-03T08:44:20.748Z,102623.59
2023-03-03T08:46:50.722Z,102622.53
2023-03-03T08:49:24.194Z,102627.25
2023-03-03T08:51:54.785Z,102624.88
2023-03-03T08:54:24.522Z,102625.41
2023-03-03T08:56:55.611Z,102623.03
2023-03-03T08:59:25.517Z,102619.91
2023-03-03T09:01:55.612Z,102627.97
2023-03-03T09:04:28.053Z,102627.31
2023-03-03T09:06:57.899Z,102631.22
2023-03-03T09:09:28.936Z,102625.31
2023-03-03T09:12:02.912Z,102625.31
2023-03-03T09:14:32.804Z,102631.69
2023-03-03T09:17:03.717Z,102636.91
2023-03-03T09:19:40.332Z,102635.34
2023-03-03T09:22:22.710Z,102641.91
2023-03-03T09:24:56.032Z,102637.84
2023-03-03T09:27:31.512Z,102633.91
2023-03-03T09:30:05.122Z,102631.13
2023-03-03T09:32:39.356Z,102632.53
2023-03-03T09:35:38.950Z,102636.16
2023-03-03T09:38:30.414Z,102633.13
2023-03-03T09:41:29.239Z,102634.78
2023-03-03T09:44:17.427Z,102632.66
2023-03-03T09:47:01.190Z,102637.44
2023-03-03T09:49:36.073Z,102638.19
2023-03-03T09:52:30.348Z,102635.34
2023-03-03T09:55:10.702Z,102636.53
2023-03-03T09:58:10.841Z,102640.28
2023-03-03T10:00:53.124Z,102638.38
2023-03-03T10:03:42.858Z,102643.63
2023-03-03T10:06:23.154Z,102652.50
2023-03-03T10:09:08.002Z,102647.72
2023-03-03T10:11:44.608Z,102647.28
2023-03-03T10:14:29.905Z,102645.94
2023-03-03T10:17:23.219Z,102643.13
2023-03-03T10:20:09.276Z,102644.25
2023-03-03T10:22:50.031Z,102639.72
2023-03-03T10:25:31.634Z,102638.81
2023-03-03T10:28:30.432Z,102644.16
2023-03-03T10:31:17.375Z,102645.97
2023-03-03T10:33:57.971Z,102641.78
2023-03-03T10:36:38.026Z,102639.94
2023-03-03T10:39:23.032Z,102636.78
2023-03-03T10:42:13.546Z,102639.88
2023-03-03T10:45:00.711Z,102637.84
2023-03-03T10:47:45.140Z,102625.53
2023-03-03T10:50:24.053Z,102634.19
2023-03-03T10:53:04.258Z,102621.91
2023-03-03T10:55:52.569Z,102620.88
2023-03-03T10:58:56.783Z,102631.22
2023-03-03T11:01:33.258Z,102627.34
2023-03-03T11:04:41.700Z,102627.78
2023-03-03T11:07:21.521Z,102639.63
2023-03-03T11:10:05.986Z,102638.47
2023-03-03T11:12:48.226Z,102635.28
2023-03-03T11:15:43.962Z,102639.28
2023-03-03T11:18:25.797Z,102633.22
2023-03-03T11:21:05.765Z,102637.97
2023-03-03T11:24:02.270Z,102636.72
2023-03-03T11:26:49.546Z,102635.69
2023-03-03T11:29:38.645Z,102639.34
2023-03-03T11:32:29.883Z,102643.78
2023-03-03T11:35:19.754Z,102628.53
2023-03-03T11:38:09.880Z,102637.50
2023-03-03T11:40:48.131Z,102628.94
2023-03-03T11:43:36.119Z,102629.44
2023-03-03T11:46:11.509Z,102627.72
2023-03-03T11:48:55.675Z,102623.16
2023-03-03T11:51:35.290Z,102623.69
2023-03-03T11:54:11.878Z,102620.09
2023-03-03T11:56:44.804Z,102618.56
2023-03-03T11:59:32.803Z,102618.56
2023-03-03T12:02:14.660Z,102626.44
2023-03-03T12:04:53.073Z,102622.03
2023-03-03T12:07:36.584Z,102616.13
2023-03-03T12:10:18.029Z,102620.19
2023-03-03T12:12:53.999Z,102609.22
2023-03-03T12:15:33.715Z,102612.03
2023-03-03T12:18:38.394Z,102606.59
2023-03-03T12:21:29.925Z,102595.06
2023-03-03T12:24:26.419Z,102603.75
2023-03-03T12:27:10.044Z,102590.63
2023-03-03T12:29:47.002Z,102597.69
2023-03-03T12:32:38.406Z,102598.72
2023-03-03T12:35:22.477Z,102602.94
2023-03-03T12:38:03.337Z,102612.53
2023-03-03T12:40:36.585Z,102603.75
2023-03-03T12:43:27.597Z,102598.63
2023-03-03T12:46:05.470Z,102600.31
2023-03-03T12:48:43.474Z,102599.28
2023-03-03T12:51:22.815Z,102589.28
2023-03-03T12:54:14.137Z,102599.56
2023-03-03T12:56:48.884Z,102580.97
2023-03-03T12:59:28.302Z,102581.88
2023-03-03T13:02:31.642Z,102590.56
2023-03-03T13:05:10.510Z,102583.38
2023-03-03T13:07:46.865Z,102585.75
2023-03-03T13:10:27.739Z,102585.75
2023-03-03T13:13:01.619Z,102581.22
2023-03-03T13:15:37.599Z,102582.84
2023-03-03T13:18:28.430Z,102572.34
2023-03-03T13:21:06.040Z,102579.28
2023-03-03T13:23:46.405Z,102579.97
2023-03-03T13:26:24.728Z,102581.00
2023-03-03T13:29:05.425Z,102565.47
2023-03-03T13:31:38.044Z,102562.09
2023-03-03T13:34:15.341Z,102558.66
2023-03-03T13:36:52.622Z,102556.03
2023-03-03T13:39:27.247Z,102554.53
2023-03-03T13:42:04.884Z,102557.94
2023-03-03T13:44:42.410Z,102544.16
2023-03-03T13:47:19.465Z,102553.03
2023-03-03T13:50:16.071Z,102541.53
2023-03-03T13:52:53.306Z,102546.56
2023-03-03T13:55:32.671Z,102542.91
2023-03-03T13:58:15.348Z,102547.47
2023-03-03T14:00:59.349Z,102542.44
2023-03-03T14:03:51.332Z,102539.72
2023-03-03T14:06:23.009Z,102543.94
2023-03-03T14:09:08.884Z,102539.72
2023-03-03T14:11:45.945Z,102534.47
2023-03-03T14:14:31.265Z,102530.25
2023-03-03T14:17:06.699Z,102537.47
2023-03-03T14:19:39.789Z,102535.59
2023-03-03T14:22:26.819Z,102523.28
2023-03-03T14:25:05.529Z,102528.41
2023-03-03T14:27:40.816Z,102522.47
2023-03-03T14:30:33.036Z,102523.66
2023-03-03T14:33:07.491Z,102512.22
2023-03-03T14:35:40.402Z,102505.28
2023-03-03T14:38:16.142Z,102507.09
2023-03-03T14:40:48.205Z,102500.97
2023-03-03T14:43:28.122Z,102502.75
2023-03-03T14:46:25.499Z,102497.53
2023-03-03T14:48:57.293Z,102505.38
2023-03-03T14:51:29.304Z,102500.97
2023-03-03T14:54:00.477Z,102494.91
2023-03-03T14:56:33.278Z,102492.19
2023-03-03T14:59:21.114Z,102487.72
2023-03-03T15:02:01.064Z,102492.97
2023-03-03T15:04:34.217Z,102492.97
2023-03-03T15:07:30.833Z,102490.47
2023-03-03T15:10:00.680Z,102487.50
2023-03-03T15:12:40.797Z,102488.31
2023-03-03T15:15:44.814Z,102481.22
2023-03-03T15:18:17.663Z,102481.72
2023-03-03T15:20:51.140Z,102478.19
2023-03-03T15:23:53.711Z,102474.75
2023-03-03T15:26:30.933Z,102471.13
2023-03-03T15:29:09.293Z,102466.09
2023-03-03T15:31:51.473Z,102467.78
2023-03-03T15:34:34.572Z,102472.25
2023-03-03T15:37:41.766Z,102467.91
2023-03-03T15:40:20.730Z,102469.09
2023-03-03T15:42:52.568Z,102466.28
2023-03-03T15:45:29.336Z,102468.91
2023-03-03T15:48:11.381Z,102460.22
2023-03-03T15:50:58.700Z,102456.91
2023-03-03T15:54:00.960Z,102460.63
2023-03-03T15:56:38.729Z,102456.41
2023-03-03T15:59:39.787Z,102461.78
2023-03-03T16:02:18.972Z,102461.44
2023-03-03T16:04:58.267Z,102458.41
2023-03-03T16:07:43.758Z,102457.97
2023-03-03T16:10:24.377Z,102455.72
2023-03-03T16:13:04.622Z,102458.25
2023-03-03T16:15:47.341Z,102459.03
2023-03-03T16:18:27.582Z,102462.34
2023-03-03T16:21:09.863Z,102461.81
2023-03-03T16:23:50.052Z,102445.78
2023-03-03T16:26:33.941Z,102459.47
2023-03-03T16:29:28.268Z,102466.09
2023-03-03T16:32:04.048Z,102467.38
2023-03-03T16:34:39.612Z,102471.69
2023-03-03T16:37:19.073Z,102476.94
2023-03-03T16:39:59.075Z,102466.34
2023-03-03T16:42:35.158Z,102477.50
2023-03-03T16:45:25.214Z,102475.69
2023-03-03T16:48:08.530Z,102478.09
2023-03-03T16:50:47.422Z,102478.88
2023-03-03T16:53:29.503Z,102474.47
2023-03-03T16:56:09.834Z,102473.56
2023-03-03T16:58:50.823Z,102478.81
2023-03-03T17:01:28.376Z,102477.44
2023-03-03T17:04:03.544Z,102478.13
2023-03-03T17:06:45.227Z,102479.84
2023-03-03T17:09:33.239Z,102478.25
2023-03-03T17:12:22.049Z,102480.41
2023-03-03T17:15:06.696Z,102483.91
2023-03-03T17:17:47.165Z,102485.03
2023-03-03T17:20:31.190Z,102481.41
2023-03-03T17:23:22.465Z,102484.13
2023-03-03T17:26:01.026Z,102491.97
2023-03-03T17:28:44.518Z,102479.69
2023-03-03T17:31:24.435Z,102487.34
2023-03-03T17:34:06.626Z,102490.53
2023-03-03T17:36:49.913Z,102493.97
2023-03-03T17:39:53.520Z,102496.66
2023-03-03T17:42:35.738Z,102494.94
2023-03-03T17:45:13.013Z,102494.06
2023-03-03T17:47:53.773Z,102506.25
2023-03-03T17:50:57.597Z,102499.28
2023-03-03T17:53:55.392Z,102510.56
2023-03-03T17:56:30.142Z,102497.28
2023-03-03T17:59:27.177Z,102505.13
2023-03-03T18:02:28.412Z,102510.22
2023-03-03T18:05:15.174Z,102512.84
2023-03-03T18:07:59.514Z,102511.94
2023-03-03T18:11:04.082Z,102506.72
2023-03-03T18:14:07.192Z,102511.69
2023-03-03T18:16:54.234Z,102512.28
2023-03-03T18:19:49.323Z,102517.19
2023-03-03T18:22:25.446Z,102518.00
2023-03-03T18:25:04.288Z,102515.81
2023-03-03T18:27:38.022Z,102515.00
2023-03-03T18:30:25.105Z,102519.47
2023-03-03T18:33:16.636Z,102518.66
2023-03-03T18:35:51.294Z,102518.66
2023-03-03T18:38:35.510Z,102521.06
2023-03-03T18:41:06.768Z,102520.63
2023-03-03T18:43:59.708Z,102527.66
2023-03-03T18:46:51.677Z,102526.63
2023-03-03T18:49:41.625Z,102528.22
2023-03-03T18:52:23.671Z,102529.84
2023-03-03T18:55:33.437Z,102526.97
2023-03-03T18:58:35.612Z,102523.22
2023-03-03T19:01:41.925Z,102529.50
2023-03-03T19:04:27.122Z,102525.16
2023-03-03T19:07:17.367Z,102527.78
2023-03-03T19:10:01.859Z,102529.38
2023-03-03T19:12:56.943Z,102526.06
2023-03-03T19:15:46.385Z,102529.25
2023-03-03T19:18:23.866Z,102530.16
2023-03-03T19:20:58.421Z,102536.09
2023-03-03T19:23:48.742Z,102537.78
2023-03-03T19:26:50.862Z,102537.22
2023-03-03T19:29:56.435Z,102538.13
2023-03-03T19:32:45.923Z,102537.47
2023-03-03T19:35:30.215Z,102535.88
2023-03-03T19:38:10.807Z,102541.34
2023-03-03T19:40:46.221Z,102533.56
2023-03-03T19:43:29.844Z,102545.88
2023-03-03T19:46:13.042Z,102534.38
2023-03-03T19:48:50.179Z,102536.66
2023-03-03T19:51:30.562Z,102546.91
2023-03-03T19:54:15.673Z,102543.59
2023-03-03T19:56:53.318Z,102555.53
2023-03-03T19:59:31.842Z,102544.63
2023-03-03T20:02:17.721Z,102548.59
2023-03-03T20:04:59.465Z,102557.47
2023-03-03T20:07:39.305Z,102552.47
2023-03-03T20:10:28.439Z,102545.50
2023-03-03T20:13:10.210Z,102545.88
2023-03-03T20:15:54.136Z,102547.94
2023-03-03T20:18:50.459Z,102552.47
2023-03-03T20:21:31.394Z,102556.13
2023-03-03T20:24:25.421Z,102553.72
2023-03-03T20:27:03.356Z,102558.16
2023-03-03T20:30:01.219Z,102554.75
2023-03-03T20:32:46.584Z,102559.28
2023-03-03T20:35:28.372Z,102552.69
2023-03-03T20:38:11.366Z,102553.38
2023-03-03T20:40:48.911Z,102557.00
2023-03-03T20:43:31.409Z,102551.91
2023-03-03T20:46:10.711Z,102558.72
2023-03-03T20:48:58.121Z,102554.41
2023-03-03T20:51:37.300Z,102557.91
2023-03-03T20:54:16.611Z,102557.00
2023-03-03T20:56:52.586Z,102557.00
2023-03-03T20:59:32.174Z,102558.81
2023-03-03T21:02:12.281Z,102557.22
2023-03-03T21:04:44.808Z,102554.75
2023-03-03T21:07:29.093Z,102554.19
2023-03-03T21:10:15.464Z,102555.66
2023-03-03T21:12:45.952Z,102550.06
2023-03-03T21:15:28.168Z,102556.19
2023-03-03T21:17:58.864Z,102562.47
2023-03-03T21:20:37.097Z,102567.03
2023-03-03T21:23:07.120Z,102569.78
2023-03-03T21:25:52.376Z,102559.28
2023-03-03T21:28:28.024Z,102573.28
2023-03-03T21:31:15.952Z,102564.66
2023-03-03T21:33:55.391Z,102568.88
2023-03-03T21:36:48.001Z,102565.22
2023-03-03T21:39:29.703Z,102573.06
2023-03-03T21:42:03.269Z,102572.16
2023-03-03T21:44:36.304Z,102575.47
2023-03-03T21:47:07.340Z,102575.34
2023-03-03T21:49:38.884Z,102562.38
2023-03-03T21:52:12.327Z,102564.41
2023-03-03T21:54:44.986Z,102567.03
2023-03-03T21:57:15.167Z,102562.47
2023-03-03T21:59:45.178Z,102558.03
2023-03-03T22:02:15.076Z,102555.22
2023-03-03T22:04:45.731Z,102559.28
2023-03-03T22:07:19.723Z,102565.31
2023-03-03T22:09:49.479Z,102564.41
2023-03-03T22:12:19.261Z,102567.03
2023-03-03T22:14:49.528Z,102567.03
2023-03-03T22:17:19.298Z,102561.53
2023-03-03T22:19:49.078Z,102561.53
2023-03-03T22:22:21.456Z,102560.75
2023-03-03T22:24:51.260Z,102565.19
2023-03-03T22:27:21.071Z,102559.41
2023-03-03T22:29:50.843Z,102559.50
2023-03-03T22:32:20.678Z,102558.94
2023-03-03T22:34:50.743Z,102558.13
2023-03-03T22:37:23.962Z,102563.63
2023-03-03T22:39:53.731Z,102559.53
2023-03-03T22:42:23.581Z,102559.53
2023-03-03T22:44:53.339Z,102557.94
2023-03-03T22:47:23.135Z,102553.59
2023-03-03T22:49:52.918Z,102555.19
2023-03-03T22:52:25.309Z,102548.97
2023-03-03T22:54:55.061Z,102550.19
2023-03-03T22:57:24.826Z,102545.50
2023-03-03T22:59:54.879Z,102553.38
2023-03-03T23:02:24.655Z,102549.97
2023-03-03T23:04:58.424Z,102554.41
2023-03-03T23:07:31.693Z,102547.44
2023-03-03T23:10:01.524Z,102550.19
2023-03-03T23:12:31.387Z,102547.56
2023-03-03T23:15:01.324Z,102544.75
2023-03-03T23:17:31.137Z,102548.03
2023-03-03T23:20:00.946Z,102540.88
2023-03-03T23:22:33.322Z,102538.34
2023-03-03T23:25:03.163Z,102534.81
2023-03-03T23:27:33.059Z,102542.69
2023-03-03T23:30:02.919Z,102540.41
2023-03-03T23:32:32.931Z,102542.34
2023-03-03T23:35:02.982Z,102540.84
2023-03-03T23:37:35.521Z,102544.38
2023-03-03T23:40:05.385Z,102541.66
2023-03-03T23:42:35.285Z,102534.72
2023-03-03T23:45:05.151Z,102538.13
2023-03-03T23:47:35.345Z,102534.50
2023-03-03T23:50:05.190Z,102535.63
2023-03-03T23:52:37.568Z,102542.78
2023-03-03T23:55:09.430Z,102543.59
2023-03-03T23:57:39.204Z,102545.19
